createdAt,value
2023-03-31T00:02:02.379Z,24.24
2023-03-31T00:04:34.679Z,23.26
2023-03-31T00:07:09.795Z,23.58
2023-03-31T00:09:46.398Z,24.59
2023-03-31T00:12:19.972Z,24.38
2023-03-31T00:14:52.791Z,24.87
2023-03-31T00:17:25.037Z,23.86
2023-03-31T00:20:00.589Z,26.51
2023-03-31T00:22:38.705Z,24.02
2023-03-31T00:25:12.997Z,24.71
2023-03-31T00:27:47.317Z,23.15
2023-03-31T00:30:20.227Z,23.14
2023-03-31T00:32:52.437Z,23.04
2023-03-31T00:35:24.897Z,23.35
2023-03-31T00:37:59.982Z,23.37
2023-03-31T00:40:32.249Z,21.36
2023-03-31T00:43:04.491Z,21.29
2023-03-31T00:45:36.925Z,21.93
2023-03-31T00:48:17.534Z,20.51
2023-03-31T00:50:57.018Z,21.11
2023-03-31T00:53:38.690Z,20.21
2023-03-31T00:56:17.218Z,20.41
2023-03-31T00:58:53.023Z,19.42
2023-03-31T01:01:28.046Z,19.11
2023-03-31T01:04:02.445Z,19.44
2023-03-31T01:06:36.310Z,20.04
2023-03-31T01:09:11.529Z,19.19
2023-03-31T01:11:44.435Z,18.65
2023-03-31T01:14:17.270Z,18.76
2023-03-31T01:16:49.987Z,19.44
2023-03-31T01:19:36.953Z,21.49
2023-03-31T01:22:54.669Z,23.39
2023-03-31T01:26:13.482Z,19.98
2023-03-31T01:29:00.006Z,18.63
2023-03-31T01:32:10.055Z,19.30
2023-03-31T01:35:21.670Z,20.12
2023-03-31T01:38:27.254Z,20.25
2023-03-31T01:41:23.154Z,19.65
2023-03-31T01:44:06.240Z,19.46
2023-03-31T01:46:46.740Z,19.65
2023-03-31T01:49:28.138Z,22.61
2023-03-31T01:52:09.172Z,24.51
2023-03-31T01:54:50.875Z,25.46
2023-03-31T01:57:34.551Z,24.58
2023-03-31T02:00:12.228Z,25.56
2023-03-31T02:02:52.260Z,24.34
2023-03-31T02:05:28.849Z,25.49
2023-03-31T02:08:08.739Z,25.61
2023-03-31T02:10:43.015Z,26.01
2023-03-31T02:13:20.612Z,25.44
2023-03-31T02:15:58.778Z,24.56
2023-03-31T02:18:38.537Z,25.70
2023-03-31T02:21:14.723Z,25.69
2023-03-31T02:23:49.735Z,24.71
2023-03-31T02:26:28.339Z,26.23
2023-03-31T02:29:03.704Z,25.23
2023-03-31T02:31:48.879Z,24.55
2023-03-31T02:34:21.899Z,25.45
2023-03-31T02:36:55.150Z,25.94
2023-03-31T02:39:34.444Z,25.64
2023-03-31T02:42:09.900Z,24.06
2023-03-31T02:44:45.110Z,24.73
2023-03-31T02:47:22.170Z,24.09
2023-03-31T02:50:00.466Z,22.99
2023-03-31T02:52:52.331Z,24.53
2023-03-31T02:55:51.578Z,23.91
2023-03-31T02:58:44.743Z,25.35
2023-03-31T03:01:39.549Z,25.64
2023-03-31T03:04:36.953Z,24.15
2023-03-31T03:07:21.599Z,24.61
2023-03-31T03:10:06.532Z,21.46
2023-03-31T03:12:48.928Z,20.63
2023-03-31T03:15:28.494Z,19.43
2023-03-31T03:18:04.847Z,18.47
2023-03-31T03:20:37.106Z,18.64
2023-03-31T03:23:09.610Z,17.49
2023-03-31T03:25:42.032Z,17.16
2023-03-31T03:28:14.490Z,17.25
2023-03-31T03:30:47.460Z,17.26
2023-03-31T03:33:25.417Z,16.81
2023-03-31T03:35:57.716Z,16.80
2023-03-31T03:38:29.931Z,16.50
2023-03-31T03:41:02.104Z,16.84
2023-03-31T03:43:34.570Z,16.07
2023-03-31T03:46:07.171Z,16.51
2023-03-31T03:48:42.163Z,17.02
2023-03-31T03:51:14.412Z,16.73
2023-03-31T03:53:46.619Z,14.89
2023-03-31T03:56:19.028Z,15.81
2023-03-31T03:58:51.348Z,16.81
2023-03-31T04:01:23.944Z,15.76
2023-03-31T04:03:58.946Z,15.61
2023-03-31T04:06:32.270Z,15.44
2023-03-31T04:09:04.675Z,16.11
2023-03-31T04:11:37.500Z,15.46
2023-03-31T04:14:09.756Z,14.35
2023-03-31T04:16:42.937Z,11.90
2023-03-31T04:19:18.608Z,11.72
2023-03-31T04:21:50.992Z,11.86
2023-03-31T04:24:30.826Z,10.30
2023-03-31T04:27:07.408Z,10.05
2023-03-31T04:29:39.706Z,10.91
2023-03-31T04:32:15.268Z,12.41
2023-03-31T04:34:50.764Z,12.17
2023-03-31T04:37:23.100Z,11.37
2023-03-31T04:39:55.303Z,12.19
2023-03-31T04:42:27.669Z,12.29
2023-03-31T04:44:59.944Z,12.83
2023-03-31T04:47:32.233Z,14.51
2023-03-31T04:50:07.602Z,17.48
2023-03-31T04:52:40.269Z,17.49
2023-03-31T04:55:13.794Z,18.01
2023-03-31T04:57:46.016Z,20.85
2023-03-31T05:00:19.442Z,22.69
2023-03-31T05:02:51.821Z,24.99
2023-03-31T05:05:27.373Z,24.41
2023-03-31T05:07:59.630Z,26.66
2023-03-31T05:10:31.910Z,26.37
2023-03-31T05:13:04.220Z,26.21
2023-03-31T05:15:36.655Z,26.80
2023-03-31T05:18:09.137Z,25.16
2023-03-31T05:20:43.933Z,23.74
2023-03-31T05:23:16.235Z,22.88
2023-03-31T05:25:48.674Z,22.95
2023-03-31T05:28:23.642Z,21.71
2023-03-31T05:30:55.872Z,20.70
2023-03-31T05:33:28.177Z,20.47
2023-03-31T05:36:03.225Z,20.61
2023-03-31T05:38:36.679Z,19.81
2023-03-31T05:41:09.634Z,20.56
2023-03-31T05:43:43.486Z,21.39
2023-03-31T05:46:15.977Z,20.11
2023-03-31T05:48:48.269Z,20.53
2023-03-31T05:51:23.248Z,19.89
2023-03-31T05:53:55.627Z,19.93
2023-03-31T05:56:28.254Z,16.94
2023-03-31T05:59:00.548Z,17.21
2023-03-31T06:01:33.254Z,17.32
2023-03-31T06:04:05.530Z,16.81
2023-03-31T06:06:40.371Z,17.06
2023-03-31T06:09:12.649Z,16.55
2023-03-31T06:11:44.953Z,15.56
2023-03-31T06:14:17.211Z,15.48
2023-03-31T06:16:49.888Z,15.30
2023-03-31T06:19:22.620Z,16.10
2023-03-31T06:21:57.870Z,15.43
2023-03-31T06:24:30.255Z,15.42
2023-03-31T06:27:04.143Z,15.56
2023-03-31T06:29:36.454Z,15.19
2023-03-31T06:32:08.946Z,13.88
2023-03-31T06:34:41.315Z,13.37
2023-03-31T06:37:16.124Z,12.70
2023-03-31T06:39:49.302Z,12.87
2023-03-31T06:42:21.610Z,11.28
2023-03-31T06:44:55.890Z,11.16
2023-03-31T06:47:28.177Z,11.21
2023-03-31T06:50:00.513Z,11.26
2023-03-31T06:52:35.732Z,10.65
2023-03-31T06:55:09.401Z,9.99
2023-03-31T06:57:41.982Z,10.43
2023-03-31T07:00:15.498Z,9.62
2023-03-31T07:02:47.771Z,9.51
2023-03-31T07:05:26.780Z,8.57
2023-03-31T07:08:03.591Z,9.57
2023-03-31T07:18:55.001Z,7.46
2023-03-31T07:21:27.224Z,7.36
2023-03-31T07:23:59.384Z,8.03
2023-03-31T07:26:31.742Z,9.28
2023-03-31T07:29:03.986Z,9.52
2023-03-31T07:31:36.548Z,8.74
2023-03-31T07:34:11.417Z,7.74
2023-03-31T07:36:43.775Z,8.84
2023-03-31T07:39:16.182Z,8.54
2023-03-31T07:41:48.419Z,9.66
2023-03-31T07:44:22.024Z,10.92
2023-03-31T07:46:54.409Z,10.51
2023-03-31T07:49:29.260Z,9.54
2023-03-31T07:52:01.740Z,9.79
2023-03-31T07:54:33.967Z,8.52
2023-03-31T12:06:23.932Z,14.40
2023-03-31T12:09:13.248Z,14.46
2023-03-31T12:18:26.867Z,13.92
2023-03-31T12:21:04.466Z,14.05
2023-03-31T12:23:44.633Z,15.72
2023-03-31T12:26:32.532Z,14.91
2023-03-31T12:29:11.474Z,12.26
2023-03-31T12:31:48.239Z,12.50
2023-03-31T12:34:29.867Z,15.82
2023-03-31T12:37:29.053Z,15.36
2023-03-31T12:40:15.571Z,15.66
2023-03-31T12:43:03.257Z,15.38
2023-03-31T12:45:40.088Z,14.94
2023-03-31T12:48:55.300Z,14.95
2023-03-31T12:51:50.288Z,16.31
2023-03-31T12:54:43.164Z,15.38
2023-03-31T12:57:24.480Z,15.40
2023-03-31T13:00:26.083Z,15.69
2023-03-31T13:03:28.684Z,15.06
2023-03-31T13:06:01.634Z,16.17
2023-03-31T13:09:06.083Z,16.16
2023-03-31T13:11:44.886Z,15.35
2023-03-31T13:14:24.001Z,16.73
2023-03-31T13:17:15.401Z,16.58
2023-03-31T13:19:48.001Z,15.76
2023-03-31T13:22:39.323Z,15.89
2023-03-31T13:25:37.355Z,16.28
2023-03-31T13:28:17.861Z,16.56
2023-03-31T13:31:11.409Z,16.81
2023-03-31T13:33:58.249Z,16.36
2023-03-31T13:36:57.135Z,17.21
2023-03-31T13:39:49.839Z,16.21
2023-03-31T13:42:57.461Z,15.59
2023-03-31T13:45:51.816Z,15.84
2023-03-31T13:48:42.261Z,15.01
2023-03-31T13:51:32.868Z,17.43
2023-03-31T13:54:38.998Z,18.46
2023-03-31T13:57:38.951Z,16.99
2023-03-31T14:00:36.671Z,14.53
2023-03-31T14:03:33.624Z,16.77
2023-03-31T14:06:14.944Z,16.99
2023-03-31T14:08:56.413Z,14.96
2023-03-31T14:11:30.447Z,17.81
2023-03-31T14:14:11.332Z,15.67
2023-03-31T14:16:48.312Z,15.13
2023-03-31T14:19:49.514Z,14.51
2023-03-31T14:22:33.039Z,14.81
2023-03-31T14:25:17.179Z,14.44
2023-03-31T14:28:05.449Z,16.14
2023-03-31T14:30:54.285Z,15.23
2023-03-31T14:33:42.313Z,17.36
2023-03-31T14:36:28.855Z,17.67
2023-03-31T14:39:08.642Z,17.18
2023-03-31T14:41:41.866Z,18.67
2023-03-31T14:44:19.904Z,18.56
2023-03-31T14:46:55.745Z,19.10
2023-03-31T14:49:31.948Z,16.92
2023-03-31T14:52:08.662Z,17.54
2023-03-31T14:54:41.527Z,16.08
2023-03-31T14:57:21.885Z,15.50
2023-03-31T14:59:58.182Z,14.79
2023-03-31T15:02:38.997Z,15.18
2023-03-31T15:05:19.920Z,14.88
2023-03-31T15:07:52.959Z,15.04
2023-03-31T15:10:26.343Z,14.00
2023-03-31T15:12:58.871Z,14.86
2023-03-31T15:15:31.904Z,15.09
2023-03-31T15:18:08.281Z,15.05
2023-03-31T15:20:45.248Z,13.91
2023-03-31T15:23:27.998Z,14.22
2023-03-31T15:26:05.462Z,12.91
2023-03-31T15:28:47.356Z,14.34
2023-03-31T15:31:20.086Z,12.33
2023-03-31T15:34:01.154Z,11.98
2023-03-31T15:36:37.551Z,12.29
2023-03-31T15:39:12.035Z,12.09
2023-03-31T15:41:45.150Z,11.76
2023-03-31T15:44:39.747Z,12.80
2023-03-31T15:47:19.962Z,13.16
2023-03-31T15:50:01.393Z,13.50
2023-03-31T15:52:38.672Z,14.81
2023-03-31T15:55:29.833Z,14.87
2023-03-31T15:58:04.576Z,16.35
2023-03-31T16:00:48.405Z,15.86
2023-03-31T16:03:28.943Z,15.74
2023-03-31T16:06:09.673Z,16.85
2023-03-31T16:08:49.801Z,16.58
2023-03-31T16:11:26.914Z,15.22
2023-03-31T16:14:03.549Z,18.07
2023-03-31T16:16:38.080Z,16.90
2023-03-31T16:19:14.611Z,17.47
2023-03-31T16:21:55.136Z,16.76
2023-03-31T16:24:36.185Z,16.49
2023-03-31T16:27:11.594Z,15.62
2023-03-31T16:29:43.832Z,21.39
2023-03-31T16:32:18.894Z,18.86
2023-03-31T16:35:02.917Z,18.19
2023-03-31T16:37:37.781Z,18.01
2023-03-31T16:40:11.822Z,20.79
2023-03-31T16:42:44.022Z,18.57
2023-03-31T16:45:16.819Z,21.50
2023-03-31T16:47:49.031Z,27.65
2023-03-31T16:50:21.264Z,22.54
2023-03-31T16:52:56.041Z,22.73
2023-03-31T16:55:28.629Z,22.41
2023-03-31T16:58:03.177Z,19.54
2023-03-31T17:00:37.047Z,19.62
2023-03-31T17:03:10.214Z,16.99
2023-03-31T17:05:44.090Z,17.22
2023-03-31T17:08:20.654Z,17.01
2023-03-31T17:10:58.334Z,17.46
2023-03-31T17:13:30.637Z,17.35
2023-03-31T17:16:13.455Z,18.60
2023-03-31T17:18:49.576Z,21.27
2023-03-31T17:21:22.155Z,21.64
2023-03-31T17:23:57.132Z,21.12
2023-03-31T17:26:29.604Z,21.66
2023-03-31T17:29:01.853Z,20.78
2023-03-31T17:31:34.223Z,19.83
2023-03-31T17:34:07.017Z,19.57
2023-03-31T17:36:39.649Z,18.29
2023-03-31T17:39:15.045Z,17.26
2023-03-31T17:41:47.249Z,16.39
2023-03-31T17:44:19.510Z,24.50
2023-03-31T17:46:52.122Z,23.77
2023-03-31T17:49:24.969Z,27.54
2023-03-31T17:51:57.600Z,24.74
2023-03-31T17:54:32.443Z,22.73
2023-03-31T17:57:04.743Z,27.69
2023-03-31T17:59:38.459Z,33.05
2023-03-31T18:02:11.450Z,31.66
2023-03-31T18:04:43.630Z,26.40
2023-03-31T18:07:18.031Z,26.07
2023-03-31T18:09:52.880Z,25.39
2023-03-31T18:12:25.139Z,26.10
2023-03-31T18:14:57.539Z,27.73
2023-03-31T18:17:31.243Z,25.18
2023-03-31T18:20:03.724Z,29.79
2023-03-31T18:22:36.080Z,25.91
2023-03-31T18:25:13.238Z,26.62
2023-03-31T18:27:47.460Z,29.08
2023-03-31T18:30:20.070Z,25.74
2023-03-31T18:32:53.555Z,27.44
2023-03-31T18:35:27.451Z,29.06
2023-03-31T18:37:59.688Z,29.82
2023-03-31T18:40:34.631Z,36.14
2023-03-31T18:43:07.248Z,36.68
2023-03-31T18:45:39.785Z,33.12
2023-03-31T18:48:12.137Z,37.85
2023-03-31T18:50:44.360Z,33.82
2023-03-31T18:53:17.852Z,36.64
2023-03-31T18:55:57.552Z,38.25
2023-03-31T18:58:31.954Z,36.35
2023-03-31T19:01:04.944Z,36.24
2023-03-31T19:03:38.006Z,35.12
2023-03-31T19:06:12.922Z,36.80
2023-03-31T19:08:45.349Z,31.96
2023-03-31T19:11:21.359Z,32.70
2023-03-31T19:13:55.626Z,34.00
2023-03-31T19:16:29.009Z,37.65
2023-03-31T19:19:01.381Z,37.56
2023-03-31T19:21:36.503Z,35.53
2023-03-31T19:24:09.957Z,35.09
2023-03-31T19:26:44.962Z,35.90
2023-03-31T19:29:17.874Z,34.71
2023-03-31T19:31:50.635Z,34.01
2023-03-31T19:34:22.970Z,36.13
2023-03-31T19:36:55.606Z,35.06
2023-03-31T19:39:28.790Z,36.46
2023-03-31T19:42:03.601Z,34.57
2023-03-31T19:44:35.883Z,36.69
2023-03-31T19:47:08.420Z,34.23
2023-03-31T19:49:40.784Z,40.64
2023-03-31T19:52:12.983Z,40.24
2023-03-31T19:54:45.648Z,38.46
2023-03-31T19:57:20.459Z,37.24
2023-03-31T19:59:52.702Z,39.44
2023-03-31T20:02:24.982Z,38.46
2023-03-31T20:04:57.819Z,39.24
2023-03-31T20:07:30.216Z,38.86
2023-03-31T20:10:02.587Z,40.00
2023-03-31T20:12:37.355Z,47.16
2023-03-31T20:15:11.370Z,44.28
2023-03-31T20:17:43.943Z,40.71
2023-03-31T20:20:16.593Z,42.49
2023-03-31T20:22:48.900Z,42.78
2023-03-31T20:25:21.848Z,42.93
2023-03-31T20:27:56.835Z,41.24
2023-03-31T20:30:29.027Z,44.40
2023-03-31T20:33:01.355Z,45.73
2023-03-31T20:35:34.169Z,44.19
2023-03-31T20:38:06.687Z,45.84
2023-03-31T20:40:39.274Z,45.53
2023-03-31T20:43:14.032Z,44.25
2023-03-31T20:45:47.019Z,46.69
2023-03-31T20:48:19.431Z,45.34
2023-03-31T20:50:51.656Z,46.49
2023-03-31T20:53:23.912Z,46.49
2023-03-31T20:55:57.383Z,47.56
2023-03-31T20:58:32.197Z,43.41
2023-03-31T21:01:04.411Z,45.03
2023-03-31T21:03:36.733Z,45.03
2023-03-31T21:06:12.066Z,42.59
2023-03-31T21:08:46.642Z,40.89
2023-03-31T21:11:18.972Z,42.69
2023-03-31T21:13:54.196Z,43.26
2023-03-31T21:16:27.034Z,42.82
2023-03-31T21:18:59.959Z,40.75
2023-03-31T21:21:33.898Z,38.91
2023-03-31T21:24:06.119Z,40.51
2023-03-31T21:26:38.607Z,37.66
2023-03-31T21:29:13.514Z,38.46
2023-03-31T21:31:47.276Z,38.01
2023-03-31T21:34:19.587Z,37.41
2023-03-31T21:36:53.710Z,37.20
2023-03-31T21:39:25.935Z,38.19
2023-03-31T21:41:58.126Z,37.84
2023-03-31T21:44:33.059Z,37.59
2023-03-31T21:47:05.251Z,39.42
2023-03-31T21:49:37.461Z,39.54
2023-03-31T21:52:10.506Z,38.84
2023-03-31T21:54:42.986Z,36.59
2023-03-31T21:57:15.339Z,39.49
2023-03-31T21:59:50.105Z,39.62
2023-03-31T22:02:23.366Z,37.17
2023-03-31T22:04:55.809Z,36.09
2023-03-31T22:07:28.105Z,37.86
2023-03-31T22:10:00.356Z,36.05
2023-03-31T22:12:33.560Z,33.40
2023-03-31T22:15:09.771Z,30.37
2023-03-31T22:17:42.195Z,31.94
2023-03-31T22:20:16.068Z,30.94
2023-03-31T22:22:48.362Z,31.93
2023-03-31T22:25:21.441Z,27.49
2023-03-31T22:27:53.692Z,25.83
2023-03-31T22:30:28.905Z,23.52
2023-03-31T22:33:01.392Z,24.53
2023-03-31T22:35:34.052Z,23.19
2023-03-31T22:38:06.901Z,24.69
2023-03-31T22:40:39.626Z,25.94
2023-03-31T22:43:11.798Z,24.51
2023-03-31T22:45:47.322Z,24.16
2023-03-31T22:48:19.606Z,20.69
2023-03-31T22:50:52.721Z,21.69
2023-03-31T22:53:24.968Z,22.07
2023-03-31T22:55:57.783Z,23.38
2023-03-31T22:58:29.989Z,23.36
2023-03-31T23:01:05.688Z,24.74
2023-03-31T23:03:37.985Z,24.06
2023-03-31T23:06:11.571Z,23.82
2023-03-31T23:08:45.425Z,25.79
2023-03-31T23:11:18.920Z,28.24
2023-03-31T23:13:52.009Z,29.60
2023-03-31T23:16:29.177Z,29.89
2023-03-31T23:19:01.723Z,35.92
2023-03-31T23:21:34.211Z,38.57
2023-03-31T23:24:09.087Z,37.55
2023-03-31T23:26:41.577Z,40.66
2023-03-31T23:29:13.808Z,42.90
2023-03-31T23:31:48.647Z,45.79
2023-03-31T23:34:21.423Z,51.32
2023-03-31T23:36:53.828Z,53.43
2023-03-31T23:39:26.062Z,55.76
2023-03-31T23:41:59.044Z,59.27
2023-03-31T23:44:31.363Z,62.39
2023-03-31T23:47:06.141Z,64.86
2023-03-31T23:49:38.435Z,68.81
2023-03-31T23:52:10.665Z,73.81
2023-03-31T23:54:43.180Z,70.34
2023-03-31T23:57:15.511Z,70.59
2023-03-31T23:59:47.788Z,73.84
